Time;durP1;ratioP1;P1;durP2;ratioP2;P2;SDS_P1;SDS_P2;PMS_P1;PMS_P2;Temp;Humidity;BMP_temperature;BMP_pressure;BME280_temperature;BME280_humidity;BME280_pressure;Samples;Min_cycle;Max_cycle;Signal;HPM_P1;HPM_P2
2024/01/19 00:00:17;;;;;;;11.93;5.03;;;;;;;;;;4941703;29;20028;-57
2024/01/19 00:02:43;;;;;;;11.50;4.83;;;;;;;;;;4956177;29;20096;-59
2024/01/19 00:05:08;;;;;;;16.48;5.35;;;;;;;;;;4956036;29;20040;-56
2024/01/19 00:07:34;;;;;;;16.07;5.73;;;;;;;;;;4956621;29;20035;-59
2024/01/19 00:09:59;;;;;;;12.33;5.57;;;;;;;;;;4956278;29;20058;-56
2024/01/19 00:12:25;;;;;;;14.38;5.68;;;;;;;;;;4968151;29;20112;-59
2024/01/19 00:14:50;;;;;;;27.67;8.10;;;;;;;;;;4959397;29;20059;-59
2024/01/19 00:17:15;;;;;;;29.10;8.73;;;;;;;;;;4955856;29;20490;-58
2024/01/19 00:19:41;;;;;;;15.13;5.97;;;;;;;;;;4961063;29;20059;-59
2024/01/19 00:22:06;;;;;;;12.90;4.63;;;;;;;;;;4963105;29;20035;-58
2024/01/19 00:24:32;;;;;;;10.37;4.67;;;;;;;;;;4960685;29;20366;-58
2024/01/19 00:26:57;;;;;;;9.10;2.53;;;;;;;;;;4961971;29;20051;-55
2024/01/19 00:29:23;;;;;;;14.45;4.32;;;;;;;;;;4956092;29;20034;-58
2024/01/19 00:31:48;;;;;;;13.23;3.30;;;;;;;;;;4956479;29;20035;-56
2024/01/19 00:34:14;;;;;;;6.57;3.53;;;;;;;;;;4958400;29;20043;-58
2024/01/19 00:36:40;;;;;;;10.05;3.28;;;;;;;;;;4959319;29;20040;-56
2024/01/19 00:39:05;;;;;;;11.03;3.23;;;;;;;;;;4962128;29;20039;-58
2024/01/19 00:41:31;;;;;;;14.07;3.08;;;;;;;;;;4959362;29;20043;-55
2024/01/19 00:43:57;;;;;;;8.53;3.00;;;;;;;;;;4939094;29;20360;-55
2024/01/19 00:46:23;;;;;;;10.03;3.40;;;;;;;;;;4956039;29;20099;-58
2024/01/19 00:48:49;;;;;;;31.50;8.70;;;;;;;;;;4959414;28;20302;-58
2024/01/19 00:51:15;;;;;;;26.90;9.10;;;;;;;;;;4943695;29;20028;-56
2024/01/19 00:53:40;;;;;;;20.42;6.78;;;;;;;;;;4951634;29;20051;-59
2024/01/19 00:56:07;;;;;;;15.07;4.20;;;;;;;;;;4964511;29;20103;-58
2024/01/19 00:58:33;;;;;;;5.90;3.03;;;;;;;;;;4963502;29;20063;-59
2024/01/19 01:00:58;;;;;;;4.47;1.70;;;;;;;;;;4959848;29;20031;-59
2024/01/19 01:03:24;;;;;;;2.72;1.40;;;;;;;;;;4965871;29;20039;-59
2024/01/19 01:05:56;;;;;;;2.47;1.25;;;;;;;;;;4971276;29;20039;-57
2024/01/19 01:08:26;;;;;;;16.00;3.42;;;;;;;;;;4965033;29;20114;-57
2024/01/19 01:10:52;;;;;;;33.30;6.82;;;;;;;;;;4956285;29;20032;-58
2024/01/19 01:13:18;;;;;;;23.83;5.15;;;;;;;;;;4958938;29;20028;-59
2024/01/19 01:15:44;;;;;;;6.82;2.13;;;;;;;;;;4962931;29;20030;-54
2024/01/19 01:18:10;;;;;;;3.30;1.70;;;;;;;;;;4959379;29;20081;-58
2024/01/19 01:20:37;;;;;;;2.73;1.20;;;;;;;;;;4961084;29;20067;-57
2024/01/19 01:23:03;;;;;;;2.35;1.80;;;;;;;;;;4958560;29;20254;-56
2024/01/19 01:25:29;;;;;;;3.22;1.13;;;;;;;;;;4963836;29;20020;-60
2024/01/19 01:27:54;;;;;;;5.22;1.52;;;;;;;;;;4959038;29;20036;-59
2024/01/19 01:30:20;;;;;;;5.17;1.20;;;;;;;;;;4961333;29;20028;-59
2024/01/19 01:32:45;;;;;;;5.87;1.30;;;;;;;;;;4958900;29;20060;-59
2024/01/19 01:35:11;;;;;;;2.73;1.43;;;;;;;;;;4960076;29;20294;-57
2024/01/19 01:37:36;;;;;;;3.00;1.60;;;;;;;;;;4960719;29;20273;-59
2024/01/19 01:40:04;;;;;;;5.32;2.28;;;;;;;;;;4967785;29;20103;-61
2024/01/19 01:42:30;;;;;;;4.95;2.15;;;;;;;;;;4958768;29;20565;-58
2024/01/19 01:44:55;;;;;;;6.37;2.50;;;;;;;;;;4962704;29;20028;-56
2024/01/19 01:47:21;;;;;;;4.90;2.97;;;;;;;;;;4961544;29;20028;-59
2024/01/19 01:49:46;;;;;;;6.00;2.70;;;;;;;;;;4965533;29;20043;-59
2024/01/19 01:52:12;;;;;;;5.53;3.33;;;;;;;;;;4958504;29;20039;-56
2024/01/19 01:54:37;;;;;;;6.97;3.93;;;;;;;;;;4958019;29;20258;-59
2024/01/19 01:57:03;;;;;;;8.75;4.03;;;;;;;;;;4958381;29;20043;-57
2024/01/19 01:59:29;;;;;;;9.57;4.53;;;;;;;;;;4963821;29;20043;-59
2024/01/19 02:01:54;;;;;;;9.60;5.25;;;;;;;;;;4957387;29;20302;-59
2024/01/19 02:04:20;;;;;;;10.90;4.97;;;;;;;;;;4957772;29;20036;-57
2024/01/19 02:06:45;;;;;;;16.58;5.40;;;;;;;;;;4964993;29;20054;-56
2024/01/19 02:09:11;;;;;;;10.17;5.03;;;;;;;;;;4959061;29;20047;-57
2024/01/19 02:11:37;;;;;;;12.03;5.00;;;;;;;;;;4958235;29;20286;-60
2024/01/19 02:14:05;;;;;;;12.63;5.40;;;;;;;;;;4957782;29;20087;-57
2024/01/19 02:16:31;;;;;;;13.50;5.93;;;;;;;;;;4958046;29;20047;-58
2024/01/19 02:18:57;;;;;;;30.88;5.50;;;;;;;;;;4960746;29;20023;-56
2024/01/19 02:21:23;;;;;;;10.65;5.22;;;;;;;;;;4958049;29;20067;-56
2024/01/19 02:24:00;;;;;;;10.27;4.22;;;;;;;;;;4957164;29;20115;-57
2024/01/19 02:26:27;;;;;;;14.50;6.28;;;;;;;;;;4957698;29;20040;-57
2024/01/19 02:28:52;;;;;;;15.38;5.75;;;;;;;;;;4968598;29;20030;-59
2024/01/19 02:31:17;;;;;;;15.57;5.07;;;;;;;;;;4965570;29;20055;-57
2024/01/19 02:33:43;;;;;;;21.70;6.35;;;;;;;;;;4955956;29;20039;-59
2024/01/19 02:36:09;;;;;;;11.93;5.67;;;;;;;;;;4961202;29;20069;-58
2024/01/19 02:38:34;;;;;;;12.03;4.67;;;;;;;;;;4957406;29;20277;-59
2024/01/19 02:40:59;;;;;;;17.93;6.33;;;;;;;;;;4963168;29;20266;-59
2024/01/19 02:43:25;;;;;;;13.63;5.47;;;;;;;;;;4957326;29;20040;-58
2024/01/19 02:45:50;;;;;;;11.30;6.50;;;;;;;;;;4959728;29;20038;-59
2024/01/19 02:48:15;;;;;;;14.30;6.20;;;;;;;;;;4961472;29;20043;-60
2024/01/19 02:50:41;;;;;;;16.30;5.97;;;;;;;;;;4958541;29;20046;-59
2024/01/19 02:53:07;;;;;;;12.80;6.07;;;;;;;;;;4957252;29;20023;-59
2024/01/19 02:55:32;;;;;;;10.38;6.07;;;;;;;;;;4961163;29;20027;-57
2024/01/19 02:57:58;;;;;;;12.88;5.35;;;;;;;;;;4958420;29;20032;-58
2024/01/19 03:00:23;;;;;;;13.17;6.27;;;;;;;;;;4962287;29;20099;-58
2024/01/19 03:02:49;;;;;;;12.53;4.73;;;;;;;;;;4957107;29;20265;-58
2024/01/19 03:05:14;;;;;;;11.57;6.05;;;;;;;;;;4957204;29;20059;-57
2024/01/19 03:07:40;;;;;;;6.93;4.10;;;;;;;;;;4959907;29;20068;-59
2024/01/19 03:10:05;;;;;;;10.53;5.80;;;;;;;;;;4971333;29;20031;-56
2024/01/19 03:12:30;;;;;;;16.77;5.18;;;;;;;;;;4957682;29;20079;-56
2024/01/19 03:14:56;;;;;;;13.77;5.70;;;;;;;;;;4956516;29;20087;-56
2024/01/19 03:17:22;;;;;;;15.70;5.60;;;;;;;;;;4968039;29;20095;-53
2024/01/19 03:19:47;;;;;;;15.88;5.85;;;;;;;;;;4959982;29;20038;-55
2024/01/19 03:22:13;;;;;;;10.23;4.53;;;;;;;;;;4957983;29;20036;-56
2024/01/19 03:24:38;;;;;;;15.35;5.43;;;;;;;;;;4956914;29;20059;-58
2024/01/19 03:27:04;;;;;;;7.87;4.80;;;;;;;;;;4958968;29;20035;-58
2024/01/19 03:29:29;;;;;;;18.92;5.10;;;;;;;;;;4956883;29;20518;-59
2024/01/19 03:31:55;;;;;;;14.67;4.77;;;;;;;;;;4958731;29;20055;-59
2024/01/19 03:34:20;;;;;;;15.20;5.63;;;;;;;;;;4956948;29;20265;-57
2024/01/19 03:36:47;;;;;;;15.73;5.93;;;;;;;;;;4949510;29;20091;-60
2024/01/19 03:39:13;;;;;;;9.73;4.90;;;;;;;;;;4956893;29;20036;-57
2024/01/19 03:41:38;;;;;;;12.50;5.37;;;;;;;;;;4957662;29;20274;-60
2024/01/19 03:44:03;;;;;;;12.60;5.93;;;;;;;;;;4956671;29;20290;-57
2024/01/19 03:46:29;;;;;;;12.77;5.03;;;;;;;;;;4956134;29;20091;-59
2024/01/19 03:48:55;;;;;;;8.95;4.95;;;;;;;;;;4956755;29;20039;-60
2024/01/19 03:51:20;;;;;;;11.20;5.88;;;;;;;;;;4964928;29;20034;-60
2024/01/19 03:53:46;;;;;;;10.32;5.25;;;;;;;;;;4961731;29;20031;-62
2024/01/19 03:56:13;;;;;;;6.17;3.70;;;;;;;;;;4961293;29;20044;-60
2024/01/19 03:58:38;;;;;;;13.57;5.00;;;;;;;;;;4957488;29;20039;-60
2024/01/19 04:01:04;;;;;;;19.40;5.57;;;;;;;;;;4961103;29;20059;-60
2024/01/19 04:03:30;;;;;;;11.98;4.82;;;;;;;;;;4956583;29;20051;-59
2024/01/19 04:05:56;;;;;;;15.48;5.07;;;;;;;;;;4956083;29;20032;-58
2024/01/19 04:08:22;;;;;;;16.70;4.45;;;;;;;;;;4956912;29;20028;-59
2024/01/19 04:10:47;;;;;;;7.55;3.53;;;;;;;;;;4959716;29;20117;-59
2024/01/19 04:13:13;;;;;;;10.20;4.73;;;;;;;;;;4955814;29;20027;-60
2024/01/19 04:15:38;;;;;;;12.77;4.47;;;;;;;;;;4956030;29;20273;-61
2024/01/19 04:18:04;;;;;;;22.43;6.37;;;;;;;;;;4961584;29;20281;-58
2024/01/19 04:20:30;;;;;;;15.52;5.40;;;;;;;;;;4966565;29;20032;-61
2024/01/19 04:22:55;;;;;;;16.13;5.63;;;;;;;;;;4956752;29;20104;-58
2024/01/19 04:25:20;;;;;;;17.35;6.50;;;;;;;;;;4958584;29;20028;-60
2024/01/19 04:27:46;;;;;;;11.07;4.40;;;;;;;;;;4969842;29;20038;-59
2024/01/19 04:30:11;;;;;;;13.13;5.43;;;;;;;;;;4963297;29;20322;-60
2024/01/19 04:32:37;;;;;;;11.83;5.40;;;;;;;;;;4967862;29;20270;-60
2024/01/19 04:35:04;;;;;;;12.00;5.35;;;;;;;;;;4959903;29;20262;-59
2024/01/19 04:37:30;;;;;;;18.20;5.90;;;;;;;;;;4959416;29;20050;-59
2024/01/19 04:39:55;;;;;;;19.83;6.28;;;;;;;;;;4959638;29;20040;-60
2024/01/19 04:42:21;;;;;;;15.20;6.35;;;;;;;;;;4965273;29;20067;-57
2024/01/19 04:44:47;;;;;;;17.95;5.55;;;;;;;;;;4959382;29;20084;-57
2024/01/19 04:47:12;;;;;;;12.27;5.13;;;;;;;;;;4948007;29;20081;-57
2024/01/19 04:49:38;;;;;;;19.60;5.50;;;;;;;;;;4964925;29;20075;-58
2024/01/19 04:52:03;;;;;;;15.98;6.30;;;;;;;;;;4962209;29;20036;-60
2024/01/19 04:54:29;;;;;;;12.37;5.10;;;;;;;;;;4959375;29;20087;-60
2024/01/19 04:56:54;;;;;;;14.48;5.75;;;;;;;;;;4960797;29;20066;-60
2024/01/19 04:59:20;;;;;;;8.82;4.95;;;;;;;;;;4962632;29;20043;-59
2024/01/19 05:01:45;;;;;;;13.80;6.50;;;;;;;;;;4956915;29;20031;-58
2024/01/19 05:04:11;;;;;;;18.10;5.70;;;;;;;;;;4956525;29;20295;-59
2024/01/19 05:06:36;;;;;;;10.87;5.73;;;;;;;;;;4963351;29;20269;-60
2024/01/19 05:09:02;;;;;;;21.97;6.90;;;;;;;;;;4943423;29;20020;-62
2024/01/19 05:11:27;;;;;;;17.00;6.77;;;;;;;;;;4962785;29;20294;-61
2024/01/19 05:13:53;;;;;;;15.18;6.80;;;;;;;;;;4958413;29;20040;-60
2024/01/19 05:16:18;;;;;;;15.17;7.03;;;;;;;;;;4942169;29;20035;-62
2024/01/19 05:18:44;;;;;;;15.23;7.37;;;;;;;;;;4942252;29;20337;-61
2024/01/19 05:21:09;;;;;;;12.63;7.27;;;;;;;;;;4959359;29;20032;-61
2024/01/19 05:23:34;;;;;;;13.27;7.23;;;;;;;;;;4963305;29;20040;-59
2024/01/19 05:26:04;;;;;;;21.02;6.95;;;;;;;;;;4958749;29;20058;-61
2024/01/19 05:28:31;;;;;;;13.65;6.10;;;;;;;;;;4957211;29;20050;-60
2024/01/19 05:30:56;;;;;;;12.07;6.03;;;;;;;;;;4961232;29;20039;-58
2024/01/19 05:33:22;;;;;;;12.05;5.68;;;;;;;;;;4960360;29;20036;-61
2024/01/19 05:35:47;;;;;;;12.30;5.50;;;;;;;;;;4958725;29;20028;-58
2024/01/19 05:38:13;;;;;;;12.23;5.80;;;;;;;;;;4963451;29;20337;-59
2024/01/19 05:40:38;;;;;;;15.10;6.35;;;;;;;;;;4958516;29;20024;-61
2024/01/19 05:43:04;;;;;;;19.80;8.43;;;;;;;;;;4959382;29;20036;-60
2024/01/19 05:45:30;;;;;;;14.32;5.57;;;;;;;;;;4958513;29;20039;-61
2024/01/19 05:47:56;;;;;;;12.07;6.63;;;;;;;;;;4954136;29;20162;-60
2024/01/19 05:50:21;;;;;;;15.20;5.63;;;;;;;;;;4958617;29;20024;-60
2024/01/19 05:52:47;;;;;;;10.95;4.88;;;;;;;;;;4967411;29;20023;-58
2024/01/19 05:55:13;;;;;;;9.87;4.60;;;;;;;;;;4957954;29;20047;-60
2024/01/19 05:57:38;;;;;;;11.50;6.03;;;;;;;;;;4958565;29;20055;-60
2024/01/19 06:00:04;;;;;;;16.57;5.67;;;;;;;;;;4967967;29;20070;-61
2024/01/19 06:02:36;;;;;;;12.15;5.82;;;;;;;;;;4944854;29;20031;-60
2024/01/19 06:05:02;;;;;;;9.67;5.37;;;;;;;;;;4958180;29;20055;-59
2024/01/19 06:07:30;;;;;;;15.15;8.35;;;;;;;;;;4965933;29;20028;-60
2024/01/19 06:09:55;;;;;;;14.65;7.13;;;;;;;;;;4964954;29;20083;-60
2024/01/19 06:12:21;;;;;;;17.33;7.85;;;;;;;;;;4952946;29;20031;-61
2024/01/19 06:14:46;;;;;;;15.70;8.55;;;;;;;;;;4957922;29;20036;-58
2024/01/19 06:17:13;;;;;;;17.87;8.83;;;;;;;;;;4957638;29;20067;-60
2024/01/19 06:19:40;;;;;;;18.40;8.63;;;;;;;;;;4960474;29;20063;-61
2024/01/19 06:22:05;;;;;;;18.30;9.40;;;;;;;;;;4960275;29;20044;-60
2024/01/19 06:24:35;;;;;;;18.92;7.40;;;;;;;;;;4967766;29;20059;-60
2024/01/19 06:27:00;;;;;;;23.40;10.52;;;;;;;;;;4957638;29;20054;-60
2024/01/19 06:29:26;;;;;;;28.45;12.60;;;;;;;;;;4959076;29;20031;-61
2024/01/19 06:31:52;;;;;;;21.58;10.65;;;;;;;;;;4959816;28;20039;-62
2024/01/19 06:34:18;;;;;;;22.10;9.80;;;;;;;;;;4966732;29;20043;-60
2024/01/19 06:36:44;;;;;;;22.52;11.27;;;;;;;;;;4938970;29;20042;-59
2024/01/19 06:39:10;;;;;;;28.75;11.30;;;;;;;;;;4940769;29;20034;-59
2024/01/19 06:41:39;;;;;;;23.98;10.00;;;;;;;;;;4961508;29;20031;-61
2024/01/19 06:44:05;;;;;;;19.20;9.48;;;;;;;;;;4962709;29;20036;-61
2024/01/19 06:46:30;;;;;;;30.00;10.07;;;;;;;;;;4956760;29;20091;-60
2024/01/19 06:48:56;;;;;;;21.92;10.07;;;;;;;;;;4963123;29;20042;-60
2024/01/19 06:51:23;;;;;;;23.67;9.82;;;;;;;;;;4958762;29;20035;-61
2024/01/19 06:53:49;;;;;;;19.05;9.73;;;;;;;;;;4958911;29;20050;-59
2024/01/19 06:56:16;;;;;;;22.48;9.65;;;;;;;;;;4945562;29;20048;-60
2024/01/19 06:58:41;;;;;;;24.42;9.88;;;;;;;;;;4960222;29;20035;-60
2024/01/19 07:01:07;;;;;;;21.98;10.00;;;;;;;;;;4955857;29;20032;-61
2024/01/19 07:03:32;;;;;;;22.85;9.45;;;;;;;;;;4957834;29;20068;-57
2024/01/19 07:05:58;;;;;;;20.67;9.73;;;;;;;;;;4961250;29;20028;-61
2024/01/19 07:08:23;;;;;;;23.98;9.57;;;;;;;;;;4956786;29;20035;-61
2024/01/19 07:10:49;;;;;;;20.13;9.03;;;;;;;;;;4958562;29;20035;-59
2024/01/19 07:13:14;;;;;;;14.60;9.15;;;;;;;;;;4971174;29;20051;-60
2024/01/19 07:15:40;;;;;;;19.63;10.63;;;;;;;;;;4967614;29;20032;-58
2024/01/19 07:18:05;;;;;;;16.40;7.47;;;;;;;;;;4956809;29;20285;-61
2024/01/19 07:20:31;;;;;;;20.00;8.75;;;;;;;;;;4957490;29;20489;-60
2024/01/19 07:22:59;;;;;;;25.58;9.00;;;;;;;;;;4967165;29;20082;-61
2024/01/19 07:25:24;;;;;;;28.92;9.95;;;;;;;;;;4965484;29;20039;-60
2024/01/19 07:27:50;;;;;;;22.60;9.60;;;;;;;;;;4956735;29;20051;-61
2024/01/19 07:30:15;;;;;;;23.90;9.70;;;;;;;;;;4948801;29;20039;-61
2024/01/19 07:32:41;;;;;;;26.70;10.40;;;;;;;;;;4964332;29;20080;-58
2024/01/19 07:35:06;;;;;;;16.83;9.13;;;;;;;;;;4958134;29;20040;-60
2024/01/19 07:37:32;;;;;;;27.27;10.57;;;;;;;;;;4956643;29;20269;-60
2024/01/19 07:39:57;;;;;;;24.77;9.77;;;;;;;;;;4955666;29;20305;-61
2024/01/19 07:42:22;;;;;;;32.17;10.00;;;;;;;;;;4956564;29;20047;-60
2024/01/19 07:44:48;;;;;;;25.85;11.57;;;;;;;;;;4960282;29;20498;-60
2024/01/19 07:47:14;;;;;;;23.80;11.10;;;;;;;;;;4955545;29;20036;-59
2024/01/19 07:49:39;;;;;;;28.85;10.75;;;;;;;;;;4961358;29;20038;-60
2024/01/19 07:52:05;;;;;;;28.87;12.30;;;;;;;;;;4959374;29;20083;-59
2024/01/19 07:54:30;;;;;;;28.05;11.02;;;;;;;;;;4959415;29;20076;-58
2024/01/19 07:56:56;;;;;;;19.07;7.83;;;;;;;;;;4955168;29;20039;-61
2024/01/19 07:59:21;;;;;;;21.73;9.67;;;;;;;;;;4958730;29;20270;-58
2024/01/19 08:01:47;;;;;;;31.73;11.20;;;;;;;;;;4961005;29;20270;-59
2024/01/19 08:04:12;;;;;;;22.98;11.05;;;;;;;;;;4970061;29;20554;-60
2024/01/19 08:06:38;;;;;;;26.60;10.60;;;;;;;;;;4959537;29;20035;-59
2024/01/19 08:09:04;;;;;;;26.08;10.93;;;;;;;;;;4959705;29;20038;-60
2024/01/19 08:11:31;;;;;;;21.92;9.63;;;;;;;;;;4961228;29;20034;-57
2024/01/19 08:13:56;;;;;;;28.02;10.25;;;;;;;;;;4963909;29;20031;-61
2024/01/19 08:16:21;;;;;;;22.40;12.57;;;;;;;;;;4942910;29;20035;-59
2024/01/19 08:18:47;;;;;;;21.83;9.47;;;;;;;;;;4959687;29;20031;-57
2024/01/19 08:21:12;;;;;;;30.42;10.98;;;;;;;;;;4959719;29;20103;-61
2024/01/19 08:23:38;;;;;;;24.97;10.17;;;;;;;;;;4959389;29;20051;-61
2024/01/19 08:26:05;;;;;;;19.42;9.65;;;;;;;;;;4959879;29;20055;-59
2024/01/19 08:28:30;;;;;;;23.05;11.35;;;;;;;;;;4959050;29;20042;-61
2024/01/19 08:30:57;;;;;;;27.23;10.70;;;;;;;;;;4968992;29;20111;-60
2024/01/19 08:33:23;;;;;;;32.00;11.88;;;;;;;;;;4963208;29;20127;-59
2024/01/19 08:35:49;;;;;;;24.38;11.10;;;;;;;;;;4960459;29;20028;-60
2024/01/19 08:38:14;;;;;;;21.95;9.15;;;;;;;;;;4959170;29;20035;-60
2024/01/19 08:40:40;;;;;;;20.80;9.90;;;;;;;;;;4966519;29;20038;-58
2024/01/19 08:43:05;;;;;;;27.67;11.57;;;;;;;;;;4962913;29;20059;-60
2024/01/19 08:45:31;;;;;;;26.23;11.87;;;;;;;;;;4964761;29;20294;-61
2024/01/19 08:47:56;;;;;;;29.40;11.77;;;;;;;;;;4959390;29;20028;-59
2024/01/19 08:50:22;;;;;;;24.88;11.05;;;;;;;;;;4962542;29;20067;-61
2024/01/19 08:52:47;;;;;;;19.67;10.37;;;;;;;;;;4959049;29;20039;-60
2024/01/19 08:55:13;;;;;;;24.33;10.80;;;;;;;;;;4962302;29;20104;-59
2024/01/19 08:57:39;;;;;;;25.42;11.18;;;;;;;;;;4960300;29;20039;-59
2024/01/19 09:00:05;;;;;;;24.25;11.02;;;;;;;;;;4960146;29;20039;-60
2024/01/19 09:02:30;;;;;;;20.55;9.90;;;;;;;;;;4965230;29;20039;-61
2024/01/19 09:04:55;;;;;;;23.10;10.27;;;;;;;;;;4961760;29;20031;-61
2024/01/19 09:07:21;;;;;;;25.13;10.25;;;;;;;;;;4958627;29;20043;-60
2024/01/19 09:09:47;;;;;;;25.90;10.30;;;;;;;;;;4958398;29;20031;-60
2024/01/19 09:12:12;;;;;;;29.77;11.48;;;;;;;;;;4962552;29;20036;-60
2024/01/19 09:14:38;;;;;;;22.35;10.07;;;;;;;;;;4962078;29;20036;-61
2024/01/19 09:17:03;;;;;;;23.42;11.63;;;;;;;;;;4958580;29;20126;-60
2024/01/19 09:19:29;;;;;;;18.60;10.33;;;;;;;;;;4958820;29;20040;-59
2024/01/19 09:21:55;;;;;;;28.33;11.55;;;;;;;;;;4958240;29;20054;-62
2024/01/19 09:24:20;;;;;;;23.55;10.55;;;;;;;;;;4964330;29;20047;-61
2024/01/19 09:26:45;;;;;;;22.57;11.17;;;;;;;;;;4963835;29;20027;-59
2024/01/19 09:29:11;;;;;;;21.93;11.10;;;;;;;;;;4941939;29;20039;-61
2024/01/19 09:31:46;;;;;;;30.55;10.73;;;;;;;;;;4968379;29;20035;-63
2024/01/19 09:34:12;;;;;;;23.95;11.18;;;;;;;;;;4959427;29;20107;-63
2024/01/19 09:36:38;;;;;;;18.33;10.50;;;;;;;;;;4958180;29;20028;-60
2024/01/19 09:39:04;;;;;;;22.40;9.80;;;;;;;;;;4958086;29;20099;-59
2024/01/19 09:41:32;;;;;;;21.23;7.97;;;;;;;;;;4957820;29;20040;-61
2024/01/19 09:43:58;;;;;;;20.88;6.80;;;;;;;;;;4957995;29;20059;-61
2024/01/19 09:46:30;;;;;;;19.33;8.95;;;;;;;;;;4957841;29;20028;-60
2024/01/19 09:49:06;;;;;;;10.77;5.90;;;;;;;;;;4958081;29;20038;-59
2024/01/19 09:51:49;;;;;;;15.98;6.38;;;;;;;;;;4943941;29;20032;-61
2024/01/19 09:54:20;;;;;;;10.50;6.10;;;;;;;;;;4963595;29;20050;-61
2024/01/19 09:56:45;;;;;;;13.63;6.05;;;;;;;;;;4967071;29;20032;-58
2024/01/19 09:59:12;;;;;;;13.77;5.57;;;;;;;;;;4958454;29;20043;-60
2024/01/19 10:01:37;;;;;;;12.30;6.10;;;;;;;;;;4960105;29;20035;-61
2024/01/19 10:04:04;;;;;;;11.70;6.00;;;;;;;;;;4960357;29;20471;-63
2024/01/19 10:06:29;;;;;;;10.02;4.30;;;;;;;;;;4946697;29;20037;-62
2024/01/19 10:08:56;;;;;;;8.43;3.93;;;;;;;;;;4957228;29;20035;-61
2024/01/19 10:11:21;;;;;;;;;;;;;;;;;;4962670;29;20099;-61
2024/01/19 10:13:47;;;;;;;9.43;4.03;;;;;;;;;;4962726;29;19910;-64
2024/01/19 10:16:12;;;;;;;11.37;4.43;;;;;;;;;;4961119;29;20031;-61
2024/01/19 10:18:39;;;;;;;9.90;4.93;;;;;;;;;;4960112;29;20027;-60
2024/01/19 10:21:05;;;;;;;9.10;4.13;;;;;;;;;;4957526;29;20052;-61
2024/01/19 10:23:30;;;;;;;7.47;3.25;;;;;;;;;;4956333;29;20137;-60
2024/01/19 10:26:11;;;;;;;10.95;4.00;;;;;;;;;;4963490;29;20028;-61
2024/01/19 10:28:36;;;;;;;10.20;4.07;;;;;;;;;;4957213;29;20024;-60
2024/01/19 10:31:12;;;;;;;8.80;4.05;;;;;;;;;;4958153;29;20346;-61
2024/01/19 10:33:38;;;;;;;5.93;3.40;;;;;;;;;;4961503;29;20028;-60
2024/01/19 10:36:04;;;;;;;7.53;3.30;;;;;;;;;;4959558;29;20270;-60
2024/01/19 10:38:29;;;;;;;7.70;4.00;;;;;;;;;;4943232;29;20058;-61
2024/01/19 10:40:54;;;;;;;11.07;4.93;;;;;;;;;;4963239;29;20086;-61
2024/01/19 10:43:23;;;;;;;8.67;2.90;;;;;;;;;;4956584;29;20032;-61
2024/01/19 10:45:48;;;;;;;12.93;3.53;;;;;;;;;;4962770;29;20031;-60
2024/01/19 10:48:25;;;;;;;11.47;4.10;;;;;;;;;;4940413;29;20302;-60
2024/01/19 10:51:00;;;;;;;10.07;4.00;;;;;;;;;;4956903;29;20035;-61
2024/01/19 10:53:26;;;;;;;6.77;3.33;;;;;;;;;;4956191;29;20261;-61
2024/01/19 10:55:51;;;;;;;12.03;3.43;;;;;;;;;;4960094;29;20305;-61
2024/01/19 10:58:17;;;;;;;10.85;4.20;;;;;;;;;;4956961;29;20024;-61
2024/01/19 11:00:42;;;;;;;15.40;4.23;;;;;;;;;;4960099;29;20034;-60
2024/01/19 11:03:08;;;;;;;9.47;4.03;;;;;;;;;;4961234;29;20341;-61
2024/01/19 11:05:36;;;;;;;7.43;3.63;;;;;;;;;;4959730;29;20032;-62
2024/01/19 11:08:02;;;;;;;7.27;3.43;;;;;;;;;;4960512;29;20301;-61
2024/01/19 11:10:29;;;;;;;6.65;4.00;;;;;;;;;;4956799;29;20255;-62
2024/01/19 11:12:56;;;;;;;5.47;2.97;;;;;;;;;;4956719;29;20040;-60
2024/01/19 11:15:31;;;;;;;11.03;3.57;;;;;;;;;;4958067;29;20027;-60
2024/01/19 11:17:58;;;;;;;14.50;4.73;;;;;;;;;;4956898;29;20317;-61
2024/01/19 11:20:23;;;;;;;8.93;2.97;;;;;;;;;;4957065;29;20262;-61
2024/01/19 11:22:50;;;;;;;10.83;3.60;;;;;;;;;;4956388;29;20270;-61
2024/01/19 11:25:17;;;;;;;8.33;3.30;;;;;;;;;;4956295;29;20300;-59
2024/01/19 11:27:47;;;;;;;10.30;3.40;;;;;;;;;;4963095;29;20270;-61
2024/01/19 11:30:19;;;;;;;12.13;3.60;;;;;;;;;;4956151;29;20277;-61
2024/01/19 11:32:45;;;;;;;9.47;3.10;;;;;;;;;;4956025;29;20278;-61
2024/01/19 11:35:13;;;;;;;15.43;4.10;;;;;;;;;;4958950;29;20287;-60
2024/01/19 11:37:40;;;;;;;16.67;4.27;;;;;;;;;;4958513;29;20068;-63
2024/01/19 11:40:06;;;;;;;10.83;3.67;;;;;;;;;;4956390;29;20274;-62
2024/01/19 11:42:33;;;;;;;11.63;4.23;;;;;;;;;;4956635;29;20297;-60
2024/01/19 11:44:58;;;;;;;11.87;4.60;;;;;;;;;;4956162;29;20341;-60
2024/01/19 11:47:35;;;;;;;10.07;3.63;;;;;;;;;;4965109;29;20028;-60
2024/01/19 11:50:05;;;;;;;8.83;3.70;;;;;;;;;;4939831;29;20083;-61
2024/01/19 11:52:35;;;;;;;9.83;3.67;;;;;;;;;;4939276;29;20028;-61
2024/01/19 11:55:20;;;;;;;11.73;3.57;;;;;;;;;;4956038;29;20032;-60
2024/01/19 11:57:45;;;;;;;18.00;4.23;;;;;;;;;;4954247;29;20117;-61
2024/01/19 12:00:11;;;;;;;10.83;3.50;;;;;;;;;;4956416;29;20111;-61
2024/01/19 12:02:38;;;;;;;10.38;4.68;;;;;;;;;;4955929;29;20039;-60
2024/01/19 12:05:08;;;;;;;11.70;4.10;;;;;;;;;;4956238;29;20043;-61
2024/01/19 12:07:34;;;;;;;12.57;3.53;;;;;;;;;;4962650;29;20024;-60
2024/01/19 12:10:06;;;;;;;12.77;3.43;;;;;;;;;;4956397;29;20028;-59
2024/01/19 12:12:32;;;;;;;8.20;3.77;;;;;;;;;;4957430;29;20059;-61
2024/01/19 12:14:58;;;;;;;8.95;3.72;;;;;;;;;;4956540;29;20709;-61
2024/01/19 12:17:23;;;;;;;14.17;4.03;;;;;;;;;;4959925;29;20043;-61
2024/01/19 12:19:51;;;;;;;11.20;3.88;;;;;;;;;;4960118;29;20262;-60
2024/01/19 12:22:17;;;;;;;17.00;3.53;;;;;;;;;;4954780;29;20047;-59
2024/01/19 12:24:43;;;;;;;9.13;3.57;;;;;;;;;;4955696;29;20043;-62
2024/01/19 12:27:08;;;;;;;9.32;3.83;;;;;;;;;;4962619;29;20031;-62
2024/01/19 12:29:37;;;;;;;10.77;4.13;;;;;;;;;;4956666;29;20035;-60
2024/01/19 12:32:09;;;;;;;16.10;3.60;;;;;;;;;;4957516;29;20032;-61
2024/01/19 12:34:35;;;;;;;8.43;3.20;;;;;;;;;;4955935;29;20032;-60
2024/01/19 12:37:00;;;;;;;15.55;3.95;;;;;;;;;;4960777;29;20074;-60
2024/01/19 12:39:27;;;;;;;9.27;3.45;;;;;;;;;;4962346;29;20043;-60
2024/01/19 12:42:05;;;;;;;10.43;3.87;;;;;;;;;;4955767;29;20050;-60
2024/01/19 12:44:33;;;;;;;8.23;3.67;;;;;;;;;;4955262;29;20036;-60
2024/01/19 12:46:58;;;;;;;9.60;3.57;;;;;;;;;;4962659;29;20050;-60
2024/01/19 12:49:24;;;;;;;9.07;3.50;;;;;;;;;;4963418;29;20039;-61
2024/01/19 12:51:50;;;;;;;10.63;4.75;;;;;;;;;;4959342;29;20032;-60
2024/01/19 12:54:17;;;;;;;13.00;4.40;;;;;;;;;;4963367;29;20052;-60
2024/01/19 12:56:44;;;;;;;9.47;3.97;;;;;;;;;;4959644;29;20063;-61
2024/01/19 12:59:15;;;;;;;12.63;3.85;;;;;;;;;;4963067;29;20042;-61
2024/01/19 13:01:42;;;;;;;12.03;4.20;;;;;;;;;;4958987;29;20036;-61
2024/01/19 13:04:07;;;;;;;9.10;3.78;;;;;;;;;;4967187;29;20043;-61
2024/01/19 13:06:38;;;;;;;11.48;3.60;;;;;;;;;;4960163;29;20056;-60
2024/01/19 13:09:04;;;;;;;10.23;3.87;;;;;;;;;;4959056;29;20083;-60
2024/01/19 13:11:29;;;;;;;10.85;3.80;;;;;;;;;;4958959;29;20039;-60
2024/01/19 13:13:58;;;;;;;9.50;3.38;;;;;;;;;;4958825;29;20067;-60
2024/01/19 13:16:24;;;;;;;7.60;3.10;;;;;;;;;;4958944;29;20059;-61
2024/01/19 13:18:58;;;;;;;11.30;3.13;;;;;;;;;;4958407;29;20079;-61
2024/01/19 13:21:24;;;;;;;11.67;3.07;;;;;;;;;;4958561;29;20075;-60
2024/01/19 13:23:49;;;;;;;8.50;3.38;;;;;;;;;;4957546;29;20028;-61
2024/01/19 13:26:17;;;;;;;15.48;4.75;;;;;;;;;;4958003;29;20055;-60
2024/01/19 13:28:43;;;;;;;10.37;3.90;;;;;;;;;;4959032;29;20031;-61
2024/01/19 13:31:08;;;;;;;11.88;4.00;;;;;;;;;;4958387;29;20027;-61
2024/01/19 13:33:34;;;;;;;30.37;12.23;;;;;;;;;;4966755;29;20031;-60
2024/01/19 13:35:59;;;;;;;8.93;3.90;;;;;;;;;;4958522;29;20262;-62
2024/01/19 13:38:25;;;;;;;7.60;3.40;;;;;;;;;;4941961;29;20030;-61
2024/01/19 13:40:51;;;;;;;11.68;3.80;;;;;;;;;;4958815;29;20039;-61
2024/01/19 13:43:16;;;;;;;12.18;3.60;;;;;;;;;;4958826;29;20166;-61
2024/01/19 13:45:41;;;;;;;8.57;3.72;;;;;;;;;;4958759;29;20036;-59
2024/01/19 13:48:07;;;;;;;9.88;4.50;;;;;;;;;;4958232;29;20063;-60
2024/01/19 13:50:33;;;;;;;11.40;3.95;;;;;;;;;;4958643;29;20059;-62
2024/01/19 13:52:59;;;;;;;11.33;3.40;;;;;;;;;;4960181;29;20038;-60
2024/01/19 13:55:24;;;;;;;;;;;;;;;;;;4957859;29;20341;-60
2024/01/19 13:57:50;;;;;;;10.43;3.73;;;;;;;;;;4947653;29;19922;-60
2024/01/19 14:00:16;;;;;;;9.32;4.55;;;;;;;;;;4958434;29;20035;-60
2024/01/19 14:02:42;;;;;;;18.50;5.57;;;;;;;;;;4941566;29;20032;-60
2024/01/19 14:05:08;;;;;;;10.77;4.30;;;;;;;;;;4959997;29;20038;-59
2024/01/19 14:07:33;;;;;;;12.60;5.65;;;;;;;;;;4958133;29;20035;-60
2024/01/19 14:09:59;;;;;;;13.23;5.78;;;;;;;;;;4962208;29;20028;-60
2024/01/19 14:12:24;;;;;;;11.13;4.28;;;;;;;;;;4957843;29;20027;-61
2024/01/19 14:14:50;;;;;;;10.95;4.05;;;;;;;;;;4957666;29;20039;-60
2024/01/19 14:17:15;;;;;;;10.75;4.00;;;;;;;;;;4956783;29;20070;-59
2024/01/19 14:19:41;;;;;;;11.07;3.42;;;;;;;;;;4956116;29;20051;-59
2024/01/19 14:22:07;;;;;;;9.27;3.33;;;;;;;;;;4956137;29;20035;-60
2024/01/19 14:24:32;;;;;;;11.32;4.03;;;;;;;;;;4956178;29;20039;-60